Time;durP1;ratioP1;P1;durP2;ratioP2;P2;SDS_P1;SDS_P2;PMS_P1;PMS_P2;Temp;Humidity;BMP_temperature;BMP_pressure;BME280_temperature;BME280_humidity;BME280_pressure;Samples;Min_cycle;Max_cycle;Signal;HPM_P1;HPM_P2
2022/06/27 00:01:43;;;;;;;5.57;2.38;;;20.90;99.90;;;;;;5074647;28;20667;-74
2022/06/27 00:04:10;;;;;;;2.72;2.38;;;21.00;99.90;;;;;;5074758;28;20197;-74
2022/06/27 00:06:38;;;;;;;3.17;2.53;;;21.00;99.90;;;;;;5074601;28;20201;-74
2022/06/27 00:09:05;;;;;;;2.33;2.20;;;21.00;99.90;;;;;;5074509;28;20247;-74
2022/06/27 00:11:32;;;;;;;2.35;2.17;;;21.00;99.90;;;;;;5074432;28;20563;-74
2022/06/27 00:13:58;;;;;;;5.38;2.38;;;21.10;99.90;;;;;;5074661;28;20247;-74
2022/06/27 00:16:25;;;;;;;2.60;2.40;;;21.10;99.90;;;;;;5074418;28;20197;-74
2022/06/27 00:18:52;;;;;;;2.50;2.30;;;21.10;99.90;;;;;;5074504;28;20193;-74
2022/06/27 00:21:18;;;;;;;3.50;2.50;;;21.00;99.90;;;;;;5074380;28;20254;-74
2022/06/27 00:23:47;;;;;;;2.97;2.53;;;21.00;99.90;;;;;;5074194;28;20659;-74
2022/06/27 00:26:13;;;;;;;3.60;2.55;;;20.90;99.90;;;;;;5074164;28;20651;-74
2022/06/27 00:28:40;;;;;;;2.55;2.33;;;20.70;99.90;;;;;;5074406;28;20204;-75
2022/06/27 00:31:07;;;;;;;3.63;2.47;;;20.60;99.90;;;;;;5074170;28;20196;-74
2022/06/27 00:33:33;;;;;;;3.35;2.33;;;20.70;99.90;;;;;;5074206;28;20266;-74
2022/06/27 00:36:00;;;;;;;3.00;2.80;;;20.50;99.90;;;;;;5074271;28;20721;-74
2022/06/27 00:38:27;;;;;;;3.38;2.63;;;20.40;99.90;;;;;;5073852;28;20235;-74
2022/06/27 00:40:55;;;;;;;3.20;2.90;;;20.30;99.90;;;;;;5074179;28;20251;-74
2022/06/27 00:43:22;;;;;;;3.83;2.75;;;20.10;99.90;;;;;;5073905;28;20221;-74
2022/06/27 00:45:49;;;;;;;2.80;2.45;;;20.00;99.90;;;;;;5072793;28;20583;-75
2022/06/27 00:48:15;;;;;;;2.65;2.45;;;20.10;99.90;;;;;;5074015;28;20201;-74
2022/06/27 00:50:42;;;;;;;4.78;2.60;;;20.20;99.90;;;;;;5073824;28;20193;-75
2022/06/27 00:53:10;;;;;;;2.40;2.20;;;20.00;99.90;;;;;;5073460;28;20282;-74
2022/06/27 00:55:37;;;;;;;6.43;2.50;;;20.10;99.90;;;;;;5073566;28;20738;-75
2022/06/27 00:58:05;;;;;;;3.20;2.50;;;20.00;99.90;;;;;;5073820;28;20228;-74
2022/06/27 01:00:32;;;;;;;3.38;2.50;;;20.00;99.90;;;;;;5073681;28;20197;-74
2022/06/27 01:02:58;;;;;;;4.80;2.60;;;20.20;99.90;;;;;;5073504;28;20236;-74
2022/06/27 01:05:25;;;;;;;3.97;2.55;;;20.00;99.90;;;;;;5073400;28;20685;-75
2022/06/27 01:07:52;;;;;;;2.70;2.50;;;19.90;99.90;;;;;;5073448;28;20709;-75
2022/06/27 01:10:18;;;;;;;2.55;2.35;;;19.80;99.90;;;;;;5073552;28;20196;-74
2022/06/27 01:12:47;;;;;;;3.03;2.47;;;19.60;99.90;;;;;;5073497;28;20246;-74
2022/06/27 01:15:16;;;;;;;3.20;2.55;;;19.60;99.90;;;;;;5073420;28;20211;-74
2022/06/27 01:17:43;;;;;;;3.65;2.20;;;19.50;99.90;;;;;;5073357;28;20274;-74
2022/06/27 01:20:10;;;;;;;2.67;2.35;;;19.60;99.90;;;;;;5073157;28;20197;-74
2022/06/27 01:22:38;;;;;;;2.65;2.13;;;19.70;99.90;;;;;;5073029;28;20687;-74
2022/06/27 01:25:07;;;;;;;3.03;2.30;;;19.80;99.90;;;;;;5073295;28;20201;-74
2022/06/27 01:27:33;;;;;;;2.45;2.25;;;19.80;99.90;;;;;;5073185;28;20254;-74
2022/06/27 01:30:01;;;;;;;2.33;2.13;;;19.70;99.90;;;;;;5073095;28;20226;-74
2022/06/27 01:32:28;;;;;;;3.22;2.10;;;19.80;99.90;;;;;;5072988;28;20258;-74
2022/06/27 01:34:54;;;;;;;4.05;2.30;;;19.70;99.90;;;;;;5073276;28;20201;-74
2022/06/27 01:37:21;;;;;;;2.25;2.10;;;19.80;99.90;;;;;;5073137;28;20197;-74
2022/06/27 01:39:49;;;;;;;2.47;1.85;;;19.80;99.90;;;;;;5073122;28;20644;-74
2022/06/27 01:42:16;;;;;;;1.90;1.80;;;19.90;99.90;;;;;;5072827;28;20715;-74
2022/06/27 01:44:42;;;;;;;3.50;1.90;;;20.10;99.90;;;;;;5072907;28;20663;-74
2022/06/27 01:47:11;;;;;;;1.92;1.73;;;20.10;99.90;;;;;;5072729;28;20671;-74
2022/06/27 01:49:38;;;;;;;2.38;1.90;;;20.20;99.90;;;;;;5073045;28;20555;-75
2022/06/27 01:52:07;;;;;;;2.50;2.30;;;20.30;99.90;;;;;;5072940;28;20278;-74
2022/06/27 01:54:35;;;;;;;2.55;2.10;;;20.40;99.90;;;;;;5072668;28;20229;-77
2022/06/27 01:57:04;;;;;;;2.45;2.17;;;20.60;99.90;;;;;;5072423;28;20602;-77
2022/06/27 01:59:31;;;;;;;3.90;2.50;;;20.70;99.90;;;;;;5072574;28;20197;-77
2022/06/27 02:01:59;;;;;;;5.07;2.58;;;20.70;99.90;;;;;;5072771;28;20201;-77
2022/06/27 02:04:26;;;;;;;7.57;3.17;;;20.70;99.90;;;;;;5072740;28;20229;-77
2022/06/27 02:06:53;;;;;;;4.40;2.92;;;20.60;99.90;;;;;;5072793;28;20192;-77
2022/06/27 02:09:20;;;;;;;8.75;4.28;;;20.50;99.90;;;;;;5072718;28;20193;-75
2022/06/27 02:11:49;;;;;;;7.00;4.78;;;20.10;99.90;;;;;;5072555;28;20284;-77
2022/06/27 02:14:17;;;;;;;5.38;4.88;;;19.90;99.90;;;;;;5072470;28;20204;-78
2022/06/27 02:16:44;;;;;;;6.75;5.78;;;19.60;99.90;;;;;;5072760;28;20295;-78
2022/06/27 02:19:13;;;;;;;7.30;6.18;;;19.60;99.90;;;;;;5072723;28;20205;-78
2022/06/27 02:21:40;;;;;;;7.25;6.63;;;19.40;99.90;;;;;;5072557;28;20196;-77
2022/06/27 02:24:07;;;;;;;15.90;8.65;;;19.20;99.90;;;;;;5072468;28;20224;-76
2022/06/27 02:26:33;;;;;;;11.30;10.30;;;18.50;99.90;;;;;;5072450;28;20251;-74
2022/06/27 02:29:01;;;;;;;11.27;10.00;;;17.80;99.90;;;;;;5072536;28;20254;-73
2022/06/27 02:31:29;;;;;;;11.25;9.23;;;17.70;99.90;;;;;;5072824;28;20230;-73
2022/06/27 02:33:57;;;;;;;10.10;9.23;;;17.60;99.90;;;;;;5072817;28;20196;-74
2022/06/27 02:36:29;;;;;;;10.80;8.23;;;17.60;99.90;;;;;;5072411;28;20647;-74
2022/06/27 02:38:56;;;;;;;8.80;7.93;;;17.40;99.90;;;;;;5072397;28;20201;-75
2022/06/27 02:41:27;;;;;;;9.27;8.20;;;17.20;99.90;;;;;;5072202;28;20725;-73
2022/06/27 02:43:59;;;;;;;9.10;7.90;;;17.20;99.90;;;;;;5072526;28;20276;-74
2022/06/27 02:46:26;;;;;;;8.73;7.93;;;17.20;99.90;;;;;;5072503;28;20201;-75
2022/06/27 02:48:54;;;;;;;8.48;7.68;;;17.20;99.90;;;;;;5072447;28;20223;-75
2022/06/27 02:51:23;;;;;;;9.65;8.52;;;17.10;99.90;;;;;;5072520;28;20205;-75
2022/06/27 02:53:58;;;;;;;10.10;9.18;;;17.10;99.90;;;;;;5071988;28;20225;-75
2022/06/27 02:56:28;;;;;;;9.13;8.23;;;17.10;99.90;;;;;;5072174;28;20663;-74
2022/06/27 02:59:07;;;;;;;7.75;7.05;;;17.10;99.90;;;;;;5072356;28;20227;-74
2022/06/27 03:01:38;;;;;;;7.88;7.22;;;16.90;99.90;;;;;;5072230;28;20236;-74
2022/06/27 03:04:06;;;;;;;9.27;7.97;;;17.00;99.90;;;;;;5072123;28;20233;-74
2022/06/27 03:06:33;;;;;;;9.93;7.38;;;16.90;99.90;;;;;;5072041;28;20251;-73
2022/06/27 03:09:00;;;;;;;8.50;7.43;;;16.90;99.90;;;;;;5073009;28;20652;-73
2022/06/27 03:11:26;;;;;;;8.93;8.02;;;16.90;99.90;;;;;;5075632;28;20590;-73
2022/06/27 03:13:54;;;;;;;8.90;8.02;;;16.90;99.90;;;;;;5075705;28;20201;-72
2022/06/27 03:16:23;;;;;;;9.40;8.50;;;16.90;99.90;;;;;;5075547;28;20224;-72
2022/06/27 03:18:52;;;;;;;10.20;9.20;;;16.90;99.90;;;;;;5075467;28;20246;-72
2022/06/27 03:21:21;;;;;;;11.52;8.90;;;17.00;99.90;;;;;;5075638;28;20274;-72
2022/06/27 03:23:48;;;;;;;12.25;8.63;;;16.90;99.90;;;;;;5075554;28;20228;-72
2022/06/27 03:26:16;;;;;;;10.25;9.13;;;16.80;99.90;;;;;;5075633;28;20209;-72
2022/06/27 03:28:43;;;;;;;10.00;9.05;;;16.80;99.90;;;;;;5075533;28;20256;-72
2022/06/27 03:31:10;;;;;;;10.40;8.02;;;16.90;99.90;;;;;;5075399;28;20197;-72
2022/06/27 03:33:37;;;;;;;9.07;8.13;;;16.80;99.90;;;;;;5075580;28;20205;-72
2022/06/27 03:36:05;;;;;;;10.00;8.95;;;16.80;99.90;;;;;;5075551;28;20204;-72
2022/06/27 03:38:33;;;;;;;10.13;9.13;;;16.80;99.90;;;;;;5075670;28;20255;-72
2022/06/27 03:41:00;;;;;;;10.73;9.70;;;16.90;99.90;;;;;;5075404;28;20193;-72
2022/06/27 03:43:27;;;;;;;10.10;9.20;;;16.90;99.90;;;;;;5075048;28;20234;-72
2022/06/27 03:45:54;;;;;;;12.55;9.57;;;17.00;99.90;;;;;;5075228;28;20201;-72
2022/06/27 03:51:05;;;;;;;12.05;10.85;;;17.00;99.90;;;;;;5075572;28;20207;-71
2022/06/27 03:53:33;;;;;;;12.25;11.05;;;17.10;99.90;;;;;;5074845;28;20715;-71
2022/06/27 03:56:00;;;;;;;12.13;10.93;;;17.10;99.90;;;;;;5074931;28;20247;-71
2022/06/27 03:58:27;;;;;;;11.82;10.63;;;17.10;99.90;;;;;;5074827;28;20197;-71
2022/06/27 04:00:53;;;;;;;13.13;11.75;;;17.00;99.90;;;;;;5075037;28;20250;-71
2022/06/27 04:03:20;;;;;;;11.77;10.57;;;17.20;99.90;;;;;;5074935;28;20221;-71
2022/06/27 04:05:47;;;;;;;12.60;11.32;;;17.20;99.90;;;;;;5074838;28;20193;-71
2022/06/27 04:08:14;;;;;;;11.93;10.85;;;17.20;99.90;;;;;;5074855;28;20266;-72
2022/06/27 04:10:42;;;;;;;12.05;10.90;;;17.10;99.90;;;;;;5074665;28;20250;-72
2022/06/27 04:13:08;;;;;;;12.60;11.40;;;17.10;99.90;;;;;;5074562;28;20251;-72
2022/06/27 04:15:35;;;;;;;13.30;12.05;;;17.20;99.90;;;;;;5074615;28;20588;-72
2022/06/27 04:18:02;;;;;;;14.25;12.50;;;17.30;99.90;;;;;;5074671;28;20201;-72
2022/06/27 04:20:28;;;;;;;14.13;12.85;;;17.40;99.90;;;;;;5074398;28;20251;-72
2022/06/27 04:22:55;;;;;;;15.15;13.48;;;17.40;99.90;;;;;;5074464;28;20204;-72
2022/06/27 04:25:22;;;;;;;15.15;13.55;;;17.50;99.90;;;;;;5074312;28;20232;-72
2022/06/27 04:27:50;;;;;;;15.40;13.90;;;17.60;99.90;;;;;;5074553;28;20254;-72
2022/06/27 04:30:17;;;;;;;14.20;12.73;;;17.50;99.90;;;;;;5074566;28;20279;-72
2022/06/27 04:32:45;;;;;;;15.32;13.82;;;17.50;99.90;;;;;;5074325;28;20201;-72
2022/06/27 04:35:13;;;;;;;16.13;14.50;;;17.60;99.90;;;;;;5074255;28;20271;-72
2022/06/27 04:37:41;;;;;;;14.95;13.40;;;17.70;99.90;;;;;;5074071;28;20197;-72
2022/06/27 04:40:10;;;;;;;15.30;13.90;;;17.80;99.90;;;;;;5074013;28;20196;-72
2022/06/27 04:42:36;;;;;;;17.05;13.35;;;17.80;99.90;;;;;;5074011;28;20590;-72
2022/06/27 04:45:09;;;;;;;14.73;13.23;;;17.70;99.90;;;;;;5074059;28;20224;-72
2022/06/27 04:47:38;;;;;;;15.80;13.77;;;17.60;99.90;;;;;;5073724;28;20658;-72
2022/06/27 04:50:07;;;;;;;14.98;13.65;;;17.60;99.90;;;;;;5073830;28;20648;-72
2022/06/27 04:52:33;;;;;;;14.65;13.25;;;17.70;99.90;;;;;;5073514;28;20197;-71
2022/06/27 04:55:00;;;;;;;13.38;11.98;;;17.70;99.90;;;;;;5073905;28;20201;-69
2022/06/27 04:57:27;;;;;;;15.07;13.57;;;17.70;99.90;;;;;;5073606;28;20544;-70
2022/06/27 04:59:55;;;;;;;15.15;13.75;;;17.70;99.90;;;;;;5073753;28;20232;-70
2022/06/27 05:02:23;;;;;;;13.65;12.45;;;17.60;99.90;;;;;;5073600;28;20193;-70
2022/06/27 05:04:50;;;;;;;15.63;12.95;;;17.50;99.90;;;;;;5073438;28;20553;-70
2022/06/27 05:07:16;;;;;;;14.02;12.40;;;17.70;99.90;;;;;;5073350;28;20334;-70
2022/06/27 05:09:45;;;;;;;13.55;12.25;;;17.80;99.90;;;;;;5073694;28;20276;-70
2022/06/27 05:12:12;;;;;;;13.35;12.10;;;17.80;99.90;;;;;;5073584;28;20663;-69
2022/06/27 05:14:39;;;;;;;13.57;12.25;;;17.90;99.90;;;;;;5073385;28;20205;-70
2022/06/27 05:17:06;;;;;;;13.93;12.63;;;17.90;99.90;;;;;;5073141;28;20232;-69
2022/06/27 05:19:34;;;;;;;14.55;12.80;;;17.80;99.90;;;;;;5073147;28;20201;-69
2022/06/27 05:22:00;;;;;;;13.98;12.77;;;17.90;99.90;;;;;;5072953;28;20234;-69
2022/06/27 05:24:27;;;;;;;13.75;12.45;;;18.00;99.90;;;;;;5073186;28;20225;-72
2022/06/27 05:26:54;;;;;;;13.68;12.48;;;18.10;99.90;;;;;;5073162;28;20196;-72
2022/06/27 05:29:21;;;;;;;13.45;12.05;;;18.00;99.90;;;;;;5071825;28;20193;-72
2022/06/27 05:31:48;;;;;;;14.68;13.18;;;18.10;99.90;;;;;;5071884;28;20200;-73
2022/06/27 05:34:15;;;;;;;15.98;12.65;;;18.10;99.90;;;;;;5072396;28;20200;-72
2022/06/27 05:36:43;;;;;;;13.95;12.75;;;18.20;99.90;;;;;;5072649;28;20254;-72
2022/06/27 05:39:10;;;;;;;13.98;12.63;;;18.20;99.90;;;;;;5072731;28;20224;-72
2022/06/27 05:41:37;;;;;;;12.68;11.52;;;18.20;99.90;;;;;;5072678;28;20197;-74
2022/06/27 05:44:04;;;;;;;11.63;10.55;;;18.20;99.90;;;;;;5072448;28;20266;-72
2022/06/27 05:46:31;;;;;;;11.77;10.77;;;18.30;99.90;;;;;;5072756;28;20293;-71
2022/06/27 05:49:00;;;;;;;11.55;10.60;;;18.50;99.90;;;;;;5073023;28;20227;-72
2022/06/27 05:51:28;;;;;;;14.88;11.40;;;18.50;99.90;;;;;;5072750;28;20204;-71
2022/06/27 05:53:57;;;;;;;12.15;10.95;;;18.80;99.90;;;;;;5072748;28;20324;-72
2022/06/27 05:56:24;;;;;;;11.15;10.15;;;18.90;99.90;;;;;;5072780;28;20193;-72
2022/06/27 05:58:51;;;;;;;12.25;9.75;;;19.00;99.90;;;;;;5072729;28;20193;-71
2022/06/27 06:01:19;;;;;;;10.32;9.32;;;19.10;99.90;;;;;;5072618;28;20197;-71
2022/06/27 06:03:46;;;;;;;10.13;9.23;;;19.20;99.90;;;;;;5072792;28;20201;-71
2022/06/27 06:06:13;;;;;;;9.70;8.80;;;19.40;99.90;;;;;;5072860;28;20239;-71
2022/06/27 06:08:40;;;;;;;9.38;8.52;;;19.40;99.90;;;;;;5072615;28;20239;-71
2022/06/27 06:11:08;;;;;;;8.95;7.70;;;19.40;99.90;;;;;;5072638;28;20227;-71
2022/06/27 06:13:36;;;;;;;8.25;7.55;;;19.70;99.90;;;;;;5072432;28;20208;-71
2022/06/27 06:16:02;;;;;;;8.20;7.30;;;19.80;99.90;;;;;;5072585;28;20236;-72
2022/06/27 06:18:30;;;;;;;8.70;7.53;;;20.00;99.90;;;;;;5072753;28;20201;-72
2022/06/27 06:20:57;;;;;;;8.13;7.32;;;20.00;99.90;;;;;;5072610;28;20204;-73
2022/06/27 06:23:25;;;;;;;9.55;6.85;;;20.00;99.90;;;;;;5072578;28;20208;-73
2022/06/27 06:25:52;;;;;;;8.38;7.53;;;19.90;99.90;;;;;;5072419;28;20286;-72
2022/06/27 06:28:20;;;;;;;8.52;7.70;;;19.70;99.90;;;;;;5072390;28;20705;-72
2022/06/27 06:30:47;;;;;;;7.70;6.38;;;19.70;99.90;;;;;;5072926;28;20246;-73
2022/06/27 06:33:14;;;;;;;7.72;7.03;;;19.70;99.90;;;;;;5072298;28;20586;-73
2022/06/27 06:35:41;;;;;;;7.00;6.40;;;19.60;99.90;;;;;;5072429;28;20619;-72
2022/06/27 06:38:08;;;;;;;7.13;6.53;;;19.80;99.90;;;;;;5072458;28;20205;-72
2022/06/27 06:40:34;;;;;;;7.53;6.82;;;20.00;99.90;;;;;;5072252;28;20251;-73
2022/06/27 06:43:01;;;;;;;7.00;6.40;;;20.20;99.90;;;;;;5072593;28;20205;-74
2022/06/27 06:45:30;;;;;;;6.63;6.03;;;20.40;99.90;;;;;;5075630;28;20228;-75
2022/06/27 06:47:57;;;;;;;9.18;6.22;;;20.40;99.90;;;;;;5076296;28;20201;-75
2022/06/27 06:50:24;;;;;;;10.93;6.13;;;20.60;99.90;;;;;;5076220;28;20250;-76
2022/06/27 06:52:52;;;;;;;7.13;6.22;;;20.80;99.90;;;;;;5076113;28;20248;-75
2022/06/27 06:55:21;;;;;;;7.18;5.70;;;20.80;99.90;;;;;;5076016;28;20288;-75
2022/06/27 06:57:49;;;;;;;6.25;5.72;;;21.00;99.90;;;;;;5075969;28;20210;-75
2022/06/27 07:00:17;;;;;;;6.35;5.85;;;21.00;99.90;;;;;;5076102;28;20193;-75
2022/06/27 07:02:45;;;;;;;5.82;5.32;;;20.90;99.90;;;;;;5076069;28;20232;-75
2022/06/27 07:05:12;;;;;;;5.75;5.25;;;20.90;99.90;;;;;;5075841;28;20289;-75
2022/06/27 07:07:41;;;;;;;6.15;5.18;;;21.00;99.90;;;;;;5075743;28;20197;-75
2022/06/27 07:10:09;;;;;;;8.38;5.72;;;21.10;99.90;;;;;;5075663;28;20225;-75
2022/06/27 07:12:36;;;;;;;6.40;5.80;;;21.00;99.90;;;;;;5075730;28;20258;-75
2022/06/27 07:15:05;;;;;;;7.68;6.72;;;21.10;99.90;;;;;;5075690;28;20201;-76
2022/06/27 07:17:40;;;;;;;6.78;6.20;;;21.10;99.90;;;;;;5075617;28;20618;-76
2022/06/27 07:20:10;;;;;;;6.13;5.65;;;21.10;99.90;;;;;;5075658;28;20270;-75
2022/06/27 07:22:38;;;;;;;5.78;5.30;;;21.30;99.90;;;;;;5075492;28;20232;-76
2022/06/27 07:25:06;;;;;;;6.38;5.78;;;21.60;99.90;;;;;;5075803;28;20294;-76
2022/06/27 07:27:33;;;;;;;7.68;5.70;;;21.90;99.90;;;;;;5075723;28;20201;-76
2022/06/27 07:30:01;;;;;;;5.60;5.20;;;21.80;99.90;;;;;;5075345;28;20545;-76
2022/06/27 07:32:29;;;;;;;6.10;5.50;;;21.90;99.90;;;;;;5075484;28;20200;-76
2022/06/27 07:34:57;;;;;;;5.68;5.28;;;22.00;99.90;;;;;;5075181;28;20311;-76
2022/06/27 07:37:25;;;;;;;5.15;4.75;;;22.00;99.90;;;;;;5075432;28;20211;-76
2022/06/27 07:39:53;;;;;;;5.28;4.53;;;22.30;99.90;;;;;;5075357;28;20193;-76
2022/06/27 07:42:19;;;;;;;5.25;4.28;;;22.60;99.90;;;;;;5075249;28;20200;-77
2022/06/27 07:44:47;;;;;;;5.63;4.90;;;22.80;99.90;;;;;;5075545;28;20227;-76
2022/06/27 07:47:13;;;;;;;5.72;4.25;;;22.80;99.90;;;;;;5075279;28;20201;-76
2022/06/27 07:49:40;;;;;;;8.93;4.43;;;22.90;99.90;;;;;;5075563;28;20198;-77
2022/06/27 07:52:07;;;;;;;4.38;3.97;;;22.70;99.90;;;;;;5076258;28;20607;-76
2022/06/27 07:54:35;;;;;;;4.47;4.07;;;22.70;99.90;;;;;;5074495;28;20704;-76
2022/06/27 07:57:02;;;;;;;4.47;4.00;;;22.80;99.90;;;;;;5075208;28;20254;-76
2022/06/27 07:59:29;;;;;;;4.18;3.78;;;22.90;99.90;;;;;;5074936;28;20196;-76
2022/06/27 08:01:55;;;;;;;4.10;3.58;;;22.90;99.90;;;;;;5075174;28;20203;-76
2022/06/27 08:04:23;;;;;;;5.78;3.70;;;23.00;99.90;;;;;;5074314;28;20258;-77
2022/06/27 08:06:50;;;;;;;6.07;4.10;;;22.70;99.90;;;;;;5074794;28;20203;-75
2022/06/27 08:09:21;;;;;;;7.30;4.35;;;22.60;99.90;;;;;;5074853;28;20220;-75
2022/06/27 08:11:49;;;;;;;5.78;4.05;;;22.60;99.90;;;;;;5074788;28;20197;-75
2022/06/27 08:14:17;;;;;;;7.07;3.90;;;22.70;99.90;;;;;;5074501;28;20603;-77
2022/06/27 08:16:48;;;;;;;4.55;4.15;;;23.10;99.90;;;;;;5074440;28;20203;-77
2022/06/27 08:19:15;;;;;;;3.90;3.60;;;22.80;99.90;;;;;;5074727;28;20201;-77
2022/06/27 08:21:43;;;;;;;4.07;3.33;;;23.00;99.90;;;;;;5074303;28;20564;-77
2022/06/27 08:24:16;;;;;;;6.88;3.58;;;23.60;99.90;;;;;;5074359;28;20197;-77
2022/06/27 08:26:44;;;;;;;4.68;3.60;;;23.20;99.90;;;;;;5074249;28;20225;-77
2022/06/27 08:29:12;;;;;;;4.85;4.20;;;23.00;99.90;;;;;;5074086;28;20254;-76
2022/06/27 08:31:41;;;;;;;4.30;3.90;;;22.40;99.90;;;;;;5074384;28;20197;-76
2022/06/27 08:34:08;;;;;;;4.93;3.13;;;22.10;99.90;;;;;;5074200;28;20656;-76
2022/06/27 08:36:37;;;;;;;6.45;3.50;;;22.40;99.90;;;;;;5074248;28;20200;-76
2022/06/27 08:39:07;;;;;;;3.92;3.53;;;22.60;99.90;;;;;;5073878;28;20655;-76
2022/06/27 08:41:34;;;;;;;4.45;2.92;;;22.70;99.90;;;;;;5073836;28;20220;-77
2022/06/27 08:44:02;;;;;;;3.90;3.45;;;23.50;99.90;;;;;;5073706;28;20209;-76
2022/06/27 08:46:30;;;;;;;5.57;3.05;;;23.60;99.90;;;;;;5074028;28;20319;-76
2022/06/27 08:48:57;;;;;;;3.38;3.03;;;24.20;99.90;;;;;;5073833;28;20197;-76
2022/06/27 08:51:25;;;;;;;3.75;2.92;;;23.70;99.90;;;;;;5073799;28;20197;-76
2022/06/27 08:53:54;;;;;;;5.28;3.30;;;23.60;99.90;;;;;;5073655;28;20239;-76
2022/06/27 08:56:22;;;;;;;3.58;3.25;;;23.60;99.90;;;;;;5073654;28;20257;-76
2022/06/27 08:58:50;;;;;;;4.32;3.67;;;23.60;99.90;;;;;;5073619;28;20197;-77
2022/06/27 09:01:21;;;;;;;4.18;3.05;;;23.40;99.90;;;;;;5073664;28;20197;-76
2022/06/27 09:04:00;;;;;;;3.17;2.88;;;23.60;99.90;;;;;;5073915;28;20202;-76
2022/06/27 09:06:30;;;;;;;3.25;2.67;;;23.70;99.90;;;;;;5072527;28;20225;-76
2022/06/27 09:09:07;;;;;;;3.17;2.75;;;23.30;99.90;;;;;;5073820;28;20197;-76
2022/06/27 09:11:37;;;;;;;4.70;2.60;;;23.60;99.90;;;;;;5073577;28;20204;-77
2022/06/27 09:14:05;;;;;;;2.88;2.60;;;23.60;99.90;;;;;;5073565;28;20682;-76
2022/06/27 09:16:33;;;;;;;2.60;2.40;;;23.40;99.90;;;;;;5073229;28;20600;-77
2022/06/27 09:19:01;;;;;;;4.82;2.42;;;23.90;99.90;;;;;;5073519;28;20201;-77
2022/06/27 09:21:28;;;;;;;2.40;2.20;;;23.80;99.90;;;;;;5073392;28;20232;-75
2022/06/27 09:23:58;;;;;;;3.35;2.35;;;23.90;99.90;;;;;;5073080;28;20652;-75
2022/06/27 09:26:26;;;;;;;4.07;2.38;;;24.40;99.90;;;;;;5073155;28;20239;-75
2022/06/27 09:28:55;;;;;;;3.33;2.42;;;24.50;99.90;;;;;;5073235;28;20205;-75
2022/06/27 09:31:33;;;;;;;4.85;2.40;;;23.90;99.90;;;;;;5073242;28;20228;-76
2022/06/27 09:34:08;;;;;;;3.67;2.40;;;23.70;99.90;;;;;;5073119;28;20201;-76
2022/06/27 09:36:36;;;;;;;2.75;2.38;;;23.80;99.90;;;;;;5073197;28;20196;-76
2022/06/27 09:39:03;;;;;;;4.82;2.72;;;24.30;99.90;;;;;;5073067;28;20197;-77
2022/06/27 09:41:30;;;;;;;5.72;2.50;;;24.50;99.90;;;;;;5072817;28;20193;-77
2022/06/27 09:44:06;;;;;;;2.65;2.33;;;24.20;99.90;;;;;;5072978;28;20254;-77
2022/06/27 09:46:35;;;;;;;2.42;2.00;;;24.20;99.90;;;;;;5073249;28;20239;-76
2022/06/27 09:49:07;;;;;;;2.33;2.13;;;24.00;99.90;;;;;;5072763;28;20686;-76
2022/06/27 09:51:35;;;;;;;3.33;2.10;;;23.80;99.90;;;;;;5073023;28;20205;-76
2022/06/27 09:54:09;;;;;;;3.20;2.55;;;23.40;99.90;;;;;;5072824;28;20316;-76
2022/06/27 09:56:38;;;;;;;3.67;2.28;;;23.40;99.90;;;;;;5072942;28;20204;-76
2022/06/27 09:59:06;;;;;;;2.55;2.00;;;23.80;99.90;;;;;;5072869;28;20284;-76
2022/06/27 10:01:33;;;;;;;2.20;1.80;;;25.00;99.90;;;;;;5072856;28;20231;-76
2022/06/27 10:04:02;;;;;;;5.35;2.08;;;24.90;99.90;;;;;;5072683;28;20652;-76
2022/06/27 10:06:31;;;;;;;2.88;1.80;;;24.80;99.90;;;;;;5072628;28;20240;-76
2022/06/27 10:09:00;;;;;;;3.75;2.00;;;25.10;99.90;;;;;;5072623;28;20197;-76
2022/06/27 10:11:27;;;;;;;2.63;2.00;;;25.40;99.90;;;;;;5072415;28;20651;-76
2022/06/27 10:14:15;;;;;;;2.25;1.90;;;25.90;99.90;;;;;;5072746;28;20204;-76
2022/06/27 10:16:56;;;;;;;2.10;1.73;;;26.10;99.90;;;;;;5072648;28;20201;-78
2022/06/27 10:19:24;;;;;;;3.60;1.80;;;26.50;99.90;;;;;;5076354;28;20259;-75
2022/06/27 10:21:52;;;;;;;4.50;1.70;;;26.30;99.90;;;;;;5076925;28;20207;-75
2022/06/27 10:24:34;;;;;;;3.08;1.77;;;26.10;99.90;;;;;;5076753;28;20289;-75
2022/06/27 10:27:05;;;;;;;4.40;1.92;;;26.10;99.90;;;;;;5076737;28;20266;-76
2022/06/27 10:29:44;;;;;;;4.97;1.90;;;25.90;99.90;;;;;;5076462;28;20602;-75
2022/06/27 10:32:41;;;;;;;3.88;1.75;;;25.70;99.90;;;;;;5076570;28;20203;-77
2022/06/27 10:35:10;;;;;;;3.10;1.52;;;25.50;99.90;;;;;;5076610;28;20247;-77
2022/06/27 10:37:40;;;;;;;2.53;1.50;;;25.90;99.90;;;;;;5076384;28;20197;-77
2022/06/27 10:40:52;;;;;;;4.05;1.95;;;25.90;99.90;;;;;;5076233;28;20223;-77
2022/06/27 10:43:39;;;;;;;2.15;1.67;;;26.20;99.90;;;;;;5076342;28;20276;-77
2022/06/27 10:46:42;;;;;;;6.70;1.80;;;25.20;99.90;;;;;;5076103;28;20294;-77
2022/06/27 10:49:20;;;;;;;4.43;1.75;;;25.20;99.90;;;;;;5076039;28;20714;-77
2022/06/27 10:51:47;;;;;;;2.63;1.50;;;25.20;99.90;;;;;;5076020;28;20196;-77
2022/06/27 10:54:16;;;;;;;3.53;1.73;;;26.00;99.90;;;;;;5075896;28;20235;-77
2022/06/27 10:56:45;;;;;;;1.83;1.52;;;25.60;99.90;;;;;;5076173;28;20288;-77
2022/06/27 11:00:04;;;;;;;1.73;1.60;;;25.80;99.90;;;;;;5078091;28;20197;-77
2022/06/27 11:02:33;;;;;;;1.83;1.35;;;25.90;99.90;;;;;;5063873;28;20201;-77
2022/06/27 11:05:01;;;;;;;2.05;1.50;;;25.80;99.90;;;;;;5075842;28;20204;-77
2022/06/27 11:07:28;;;;;;;2.80;1.90;;;25.80;99.90;;;;;;5075540;28;20225;-77
2022/06/27 11:09:56;;;;;;;2.75;1.70;;;25.80;99.90;;;;;;5075896;28;20197;-77
2022/06/27 11:12:30;;;;;;;1.95;1.60;;;25.50;99.90;;;;;;5075769;28;20255;-77
2022/06/27 11:15:00;;;;;;;1.88;1.77;;;25.40;99.90;;;;;;5075934;28;20204;-76
2022/06/27 11:17:37;;;;;;;2.78;1.80;;;25.40;99.90;;;;;;5075563;28;20242;-75
2022/06/27 11:20:16;;;;;;;3.47;2.00;;;25.80;99.90;;;;;;5075370;28;20203;-76
2022/06/27 11:22:44;;;;;;;2.85;1.88;;;26.60;99.90;;;;;;5075349;28;20709;-76
2022/06/27 11:25:12;;;;;;;3.20;1.85;;;27.30;99.90;;;;;;5075556;28;20193;-76
2022/06/27 11:27:46;;;;;;;3.65;1.83;;;27.70;99.90;;;;;;5075437;28;20290;-76
2022/06/27 11:33:16;;;;;;;3.05;2.00;;;26.00;99.90;;;;;;5075385;28;20196;-76
2022/06/27 11:35:43;;;;;;;3.15;2.15;;;25.40;99.90;;;;;;5075306;28;20208;-75
2022/06/27 11:38:10;;;;;;;3.15;2.70;;;25.20;99.90;;;;;;5075324;28;20377;-75
2022/06/27 11:40:38;;;;;;;3.05;2.47;;;25.10;99.90;;;;;;5075228;28;20196;-83
2022/06/27 11:43:05;;;;;;;3.00;2.70;;;25.40;99.90;;;;;;5074818;28;20231;-77
2022/06/27 11:45:40;;;;;;;4.35;2.67;;;25.00;99.90;;;;;;5074664;28;20656;-76
2022/06/27 11:48:14;;;;;;;7.95;2.70;;;24.50;99.90;;;;;;5075011;28;20313;-75
2022/06/27 11:50:41;;;;;;;4.80;2.28;;;24.40;99.90;;;;;;5075095;28;20201;-76
2022/06/27 11:53:08;;;;;;;3.67;2.50;;;24.60;99.90;;;;;;5074611;28;20606;-78
2022/06/27 11:55:34;;;;;;;3.67;2.25;;;25.10;99.90;;;;;;5074792;28;20354;-79
2022/06/27 11:58:03;;;;;;;4.28;2.28;;;24.90;99.90;;;;;;5075002;28;20201;-77
2022/06/27 12:00:32;;;;;;;3.47;2.58;;;25.50;99.90;;;;;;5074713;28;20648;-79
2022/06/27 12:03:05;;;;;;;3.05;2.65;;;25.10;99.90;;;;;;5074821;28;20201;-79
2022/06/27 12:05:31;;;;;;;4.00;2.97;;;24.60;99.90;;;;;;5075194;28;20289;-80
2022/06/27 12:08:00;;;;;;;4.38;2.75;;;24.00;99.90;;;;;;5074998;28;20193;-80
2022/06/27 12:10:38;;;;;;;4.47;3.00;;;23.90;99.90;;;;;;5074924;28;20567;-79
2022/06/27 12:13:07;;;;;;;3.70;3.28;;;23.90;99.90;;;;;;5077975;28;20645;-78
2022/06/27 12:15:35;;;;;;;5.65;3.00;;;23.90;99.90;;;;;;5075195;28;20255;-79
2022/06/27 12:18:03;;;;;;;3.60;2.97;;;23.80;99.90;;;;;;5074913;28;20664;-79
2022/06/27 12:20:32;;;;;;;4.00;2.53;;;25.60;99.90;;;;;;5074938;28;20197;-78
2022/06/27 12:23:00;;;;;;;2.80;2.60;;;26.90;99.90;;;;;;5074758;28;20204;-79
2022/06/27 12:25:27;;;;;;;4.03;2.85;;;28.20;99.90;;;;;;5074449;28;20203;-79
2022/06/27 12:27:54;;;;;;;4.97;2.50;;;27.80;99.90;;;;;;5074458;28;20326;-79
2022/06/27 12:30:22;;;;;;;2.90;2.55;;;27.50;99.90;;;;;;5074451;28;20200;-78
2022/06/27 12:32:48;;;;;;;5.05;2.92;;;26.20;99.90;;;;;;5074172;28;20219;-78
2022/06/27 12:35:15;;;;;;;3.03;2.78;;;26.90;99.90;;;;;;5074003;28;20541;-78
2022/06/27 12:37:42;;;;;;;3.80;2.75;;;28.30;99.90;;;;;;5074081;28;20200;-78
2022/06/27 12:40:10;;;;;;;2.80;2.50;;;27.00;99.90;;;;;;5073982;28;20193;-78
2022/06/27 12:42:37;;;;;;;3.70;2.95;;;26.40;99.90;;;;;;5073730;28;20193;-78
2022/06/27 12:45:05;;;;;;;3.00;2.70;;;25.60;99.90;;;;;;5073608;28;20201;-77
2022/06/27 12:47:33;;;;;;;3.05;2.75;;;25.10;99.90;;;;;;5073450;28;20232;-78
2022/06/27 12:49:59;;;;;;;2.95;2.65;;;24.90;99.90;;;;;;5073573;28;20525;-78
2022/06/27 12:52:26;;;;;;;5.00;2.90;;;24.80;99.90;;;;;;5073579;28;20621;-79
2022/06/27 12:54:53;;;;;;;3.05;2.85;;;25.00;99.90;;;;;;5073569;28;20716;-79
2022/06/27 12:57:19;;;;;;;4.03;3.50;;;25.20;99.90;;;;;;5073642;28;20270;-79